Pelham, TN (37366)

1:01 PM CST on January 25, 2015 (GMT -0600)
Blackberry | Change Station
CLOSE
Current Station
Personal Weather Station
Location: Monteagle, TN
Elevation: 1923 ft
Nearby Weather Stations

Elev 1923 ft 35.22 °N, 85.83 °W | Updated 0 second ago

Clear
Clear
49.6 °F
Feels Like 50 °F
N
2.0
Wind Variable Wind from SSW
Gusts 17.0 mph

Today
High -- | Low -- °F
--% Chance of Precip.
Yesterday
High -- | Low -- °F
Precip. -- in
6:47 AM 5:03 PM
Waxing Crescent, 34% visible
Pressure 29.70 in
Visibility 10.0 miles
Clouds Clear
Windchill 50 °F
Dew Point 37 °F
Humidity 62%
Rainfall 0.00 in
Snow Depth Not available.
UV 4 out of 12
Pollen .70 out of 12
Air Quality Not available.
Flu Activity Not available.
METAR KBGF 251855Z AUTO 22009KT 10SM CLR 13/02 A2970 RMK

More Conditions Fewer Conditions

Pressure 29.70 in
Visibility 10.0 miles
Clouds Clear
Windchill 50 °F
Dew Point 37 °F
Humidity 62%
Rainfall 0.00 in
Snow Depth Not available.
UV 4 out of 12
Pollen .70 out of 12
Air Quality Not available.
Flu Activity Not available.
METAR KBGF 251855Z AUTO 22009KT 10SM CLR 13/02 A2970 RMK

More Conditions Fewer Conditions

10-Day Weather Forecast

Almanac

Astronomy

Jan. 25, 2015 Rise Set
Actual Time
Civil Twilight
Nautical Twilight
Astronomical Twilight
Moon
Length of Visible Light
Length of Day
Tomorrow will be .
, % of the Moon is Illuminated

Today's Extremes

State Highs State Lows

Community

WunderPhotos

Upload Photos

1,790,025 photos uploaded!

WunderBlogs® & News

Nearby

Air Quality

  Air Quality AQ Index Pollutant
Not available.

Snow Depth

Station Depth Elevation

Earthquake Activity

City Distance Mag. Time & Date
Minimum magnitude displayed is 2.5.

Coastal Water Temperatures

Place Temperature

Nearby Weather Stations